createdAt,value
2022-12-01T00:02:43.360Z,10.50
2022-12-01T00:05:17.367Z,9.48
2022-12-01T00:07:51.290Z,9.60
2022-12-01T00:10:27.636Z,6.95
2022-12-01T00:13:04.072Z,9.25
2022-12-01T00:15:39.236Z,9.18
2022-12-01T00:18:14.622Z,7.47
2022-12-01T00:20:51.159Z,8.60
2022-12-01T00:23:25.126Z,8.20
2022-12-01T00:26:04.924Z,8.70
2022-12-01T00:28:39.297Z,7.60
2022-12-01T00:31:14.312Z,7.38
2022-12-01T00:33:49.813Z,6.32
2022-12-01T00:36:24.195Z,6.70
2022-12-01T00:38:58.557Z,8.13
2022-12-01T00:41:32.410Z,9.27
2022-12-01T00:44:06.810Z,10.30
2022-12-01T00:46:40.648Z,8.25
2022-12-01T00:49:16.233Z,9.32
2022-12-01T00:51:50.077Z,13.10
2022-12-01T00:54:24.011Z,7.72
2022-12-01T00:56:57.922Z,7.63
2022-12-01T00:59:31.809Z,7.30
2022-12-01T01:02:05.967Z,8.40
2022-12-01T01:04:41.264Z,11.35
2022-12-01T01:07:15.140Z,7.38
2022-12-01T01:12:23.062Z,7.28
2022-12-01T01:14:57.086Z,7.82
2022-12-01T01:17:30.908Z,7.22
2022-12-01T01:22:40.994Z,7.22
2022-12-01T01:27:48.454Z,7.03
2022-12-01T01:30:22.420Z,6.13
2022-12-01T01:32:56.310Z,9.18
2022-12-01T01:38:05.501Z,6.40
2022-12-01T01:40:45.546Z,8.38
2022-12-01T01:43:39.053Z,4.90
2022-12-01T01:46:14.720Z,8.60
2022-12-01T01:48:53.363Z,7.50
2022-12-01T01:51:31.979Z,6.53
2022-12-01T01:54:09.197Z,8.82
2022-12-01T01:56:44.092Z,7.43
2022-12-01T01:59:21.948Z,7.90
2022-12-01T02:02:03.543Z,6.63
2022-12-01T02:04:40.429Z,9.95
2022-12-01T02:07:18.054Z,6.22
2022-12-01T02:09:52.028Z,11.38
2022-12-01T02:12:38.450Z,7.53
2022-12-01T02:15:23.693Z,8.63
2022-12-01T02:18:08.401Z,5.53
2022-12-01T02:21:24.780Z,7.40
2022-12-01T02:24:28.175Z,6.18
2022-12-01T02:27:06.629Z,4.78
2022-12-01T02:30:13.837Z,6.97
2022-12-01T02:33:06.275Z,8.05
2022-12-01T02:35:47.972Z,9.63
2022-12-01T02:38:27.647Z,8.13
2022-12-01T02:41:10.528Z,6.22
2022-12-01T02:43:48.602Z,5.20
2022-12-01T02:46:28.785Z,4.40
2022-12-01T02:49:09.480Z,8.80
2022-12-01T02:51:45.915Z,5.78
2022-12-01T02:54:20.830Z,5.03
2022-12-01T02:56:54.985Z,6.72
2022-12-01T02:59:28.800Z,5.57
2022-12-01T03:02:09.623Z,5.70
2022-12-01T03:04:56.531Z,5.03
2022-12-01T03:07:58.644Z,5.57
2022-12-01T03:10:44.478Z,4.90
2022-12-01T03:13:26.056Z,7.95
2022-12-01T03:16:06.416Z,6.82
2022-12-01T03:18:42.882Z,6.97
2022-12-01T03:21:25.785Z,5.65
2022-12-01T03:24:03.185Z,8.98
2022-12-01T03:26:39.347Z,6.20
2022-12-01T03:29:17.247Z,4.47
2022-12-01T03:31:56.275Z,8.57
2022-12-01T03:34:35.146Z,6.20
2022-12-01T03:37:14.278Z,6.10
2022-12-01T03:39:50.629Z,6.10
2022-12-01T03:42:28.919Z,7.13
2022-12-01T03:45:07.654Z,4.97
2022-12-01T03:47:41.857Z,4.85
2022-12-01T03:50:18.516Z,6.68
2022-12-01T03:53:05.199Z,3.65
2022-12-01T03:55:43.181Z,7.20
2022-12-01T03:58:21.680Z,4.45
2022-12-01T04:00:55.612Z,4.47
2022-12-01T04:03:29.513Z,4.00
2022-12-01T04:06:03.284Z,5.78
2022-12-01T04:11:32.771Z,4.03
2022-12-01T04:16:40.554Z,7.00
2022-12-01T04:21:47.915Z,7.57
2022-12-01T04:26:56.875Z,6.28
2022-12-01T04:32:04.224Z,8.70
2022-12-01T04:34:38.158Z,5.45
2022-12-01T04:37:12.402Z,3.63
2022-12-01T04:39:47.908Z,5.72
2022-12-01T04:42:22.026Z,6.85
2022-12-01T04:47:29.355Z,6.87
2022-12-01T04:52:39.256Z,4.47
2022-12-01T04:55:15.697Z,6.32
2022-12-01T04:57:49.757Z,6.55
2022-12-01T05:00:23.539Z,14.35
2022-12-01T05:05:30.963Z,3.15
2022-12-01T05:08:05.055Z,5.07
2022-12-01T05:10:40.434Z,6.65
2022-12-01T05:13:14.251Z,7.40
2022-12-01T05:15:48.117Z,15.35
2022-12-01T05:18:22.409Z,13.23
2022-12-01T05:20:58.092Z,14.13
2022-12-01T05:23:34.475Z,8.82
2022-12-01T05:26:10.995Z,4.05
2022-12-01T05:28:44.955Z,7.22
2022-12-01T05:31:18.792Z,9.45
2022-12-01T05:33:52.613Z,7.53
2022-12-01T05:38:59.992Z,11.45
2022-12-01T05:41:37.708Z,5.93
2022-12-01T05:44:11.528Z,10.48
2022-12-01T05:49:18.830Z,8.87
2022-12-01T05:54:26.200Z,6.03
2022-12-01T05:59:36.079Z,5.70
2022-12-01T06:02:09.859Z,4.40
2022-12-01T06:07:17.464Z,7.33
2022-12-01T06:09:51.668Z,5.38
2022-12-01T06:12:27.299Z,6.03
2022-12-01T06:15:01.165Z,6.88
2022-12-01T06:20:14.887Z,7.97
2022-12-01T06:22:49.814Z,5.90
2022-12-01T06:25:23.616Z,7.43
2022-12-01T06:30:32.726Z,7.43
2022-12-01T06:33:06.688Z,8.02
2022-12-01T06:35:40.697Z,10.20
2022-12-01T06:38:14.682Z,9.48
2022-12-01T06:40:48.685Z,9.55
2022-12-01T06:43:24.007Z,8.80
2022-12-01T06:46:02.020Z,12.30
2022-12-01T06:48:36.335Z,13.20
2022-12-01T06:51:11.109Z,20.02
2022-12-01T06:53:45.268Z,8.82
2022-12-01T06:56:19.078Z,12.45
2022-12-01T06:58:54.926Z,13.77
2022-12-01T07:01:29.592Z,11.23
2022-12-01T07:04:03.610Z,15.93
2022-12-01T07:06:37.477Z,11.27
2022-12-01T07:09:11.450Z,13.63
2022-12-01T07:11:45.316Z,12.02
2022-12-01T07:14:24.782Z,18.83
2022-12-01T07:16:59.223Z,11.35
2022-12-01T07:19:33.682Z,11.07
2022-12-01T07:22:07.871Z,9.90
2022-12-01T07:24:41.967Z,17.50
2022-12-01T07:27:15.915Z,20.05
2022-12-01T07:29:51.673Z,19.85
2022-12-01T07:32:26.216Z,22.52
2022-12-01T07:35:03.132Z,20.60
2022-12-01T07:37:37.257Z,15.10
2022-12-01T07:40:12.451Z,13.93
2022-12-01T07:42:46.295Z,17.83
2022-12-01T07:45:21.956Z,14.68
2022-12-01T07:47:55.895Z,14.70
2022-12-01T07:50:29.846Z,16.60
2022-12-01T07:53:03.832Z,15.55
2022-12-01T07:55:38.002Z,11.65
2022-12-01T07:58:11.867Z,12.02
2022-12-01T08:00:47.248Z,12.73
2022-12-01T08:03:21.562Z,11.95
2022-12-01T08:05:58.918Z,13.10
2022-12-01T08:08:34.482Z,11.93
2022-12-01T08:11:11.862Z,9.98
2022-12-01T08:13:46.339Z,9.73
2022-12-01T08:16:23.298Z,8.85
2022-12-01T08:18:57.166Z,12.15
2022-12-01T08:24:05.359Z,8.33
2022-12-01T08:26:39.755Z,9.48
2022-12-01T08:29:19.777Z,8.90
2022-12-01T08:31:55.634Z,9.38
2022-12-01T08:34:29.534Z,9.30
2022-12-01T08:37:03.633Z,12.23
2022-12-01T08:39:37.714Z,12.80
2022-12-01T08:42:11.557Z,13.43
2022-12-01T08:44:45.519Z,11.27
2022-12-01T08:47:20.869Z,8.27
2022-12-01T08:49:55.085Z,8.77
2022-12-01T08:52:33.562Z,6.40
2022-12-01T08:55:08.928Z,6.72
2022-12-01T08:57:42.900Z,8.77
2022-12-01T09:00:17.523Z,7.00
2022-12-01T09:02:52.996Z,12.32
2022-12-01T09:05:26.926Z,8.20
2022-12-01T09:10:52.909Z,8.95
2022-12-01T09:13:28.120Z,7.78
2022-12-01T09:16:04.389Z,7.53
2022-12-01T09:18:40.259Z,8.30
2022-12-01T09:21:16.122Z,7.50
2022-12-01T09:23:50.482Z,8.57
2022-12-01T09:26:25.219Z,12.23
2022-12-01T09:29:00.527Z,9.07
2022-12-01T09:31:34.861Z,7.72
2022-12-01T09:34:13.872Z,9.32
2022-12-01T09:36:48.301Z,5.90
2022-12-01T09:39:22.495Z,6.78
2022-12-01T09:41:59.481Z,8.43
2022-12-01T09:44:41.101Z,6.40
2022-12-01T09:47:20.283Z,7.00
2022-12-01T09:50:20.533Z,12.05
2022-12-01T09:53:00.184Z,5.97
2022-12-01T09:55:35.818Z,6.22
2022-12-01T09:58:17.995Z,7.38
2022-12-01T10:00:54.454Z,9.57
2022-12-01T10:03:35.237Z,9.45
2022-12-01T10:06:27.241Z,9.45
2022-12-01T10:09:06.634Z,6.90
2022-12-01T10:11:44.626Z,7.53
2022-12-01T10:14:20.864Z,7.85
2022-12-01T10:17:04.059Z,7.18
2022-12-01T10:19:42.689Z,5.78
2022-12-01T10:22:46.615Z,6.63
2022-12-01T10:25:24.543Z,5.67
2022-12-01T10:28:13.856Z,6.55
2022-12-01T10:30:51.397Z,5.78
2022-12-01T10:33:26.998Z,7.22
2022-12-01T10:36:00.971Z,6.88
2022-12-01T10:38:38.783Z,8.27
2022-12-01T10:41:16.617Z,6.90
2022-12-01T10:43:53.692Z,5.72
2022-12-01T10:46:31.348Z,8.15
2022-12-01T10:49:11.131Z,7.35
2022-12-01T10:51:54.209Z,5.32
2022-12-01T10:54:38.031Z,5.38
2022-12-01T10:57:17.887Z,6.10
2022-12-01T10:59:56.716Z,5.85
2022-12-01T11:02:32.197Z,5.95
2022-12-01T11:05:08.561Z,6.10
2022-12-01T11:07:45.227Z,5.80
2022-12-01T11:10:24.211Z,5.47
2022-12-01T11:13:00.899Z,4.65
2022-12-01T11:15:38.846Z,7.15
2022-12-01T11:18:25.662Z,5.00
2022-12-01T11:21:09.083Z,6.25
2022-12-01T11:23:48.250Z,6.88
2022-12-01T11:26:26.496Z,7.35
2022-12-01T11:29:03.643Z,5.90
2022-12-01T11:31:41.582Z,7.28
2022-12-01T11:34:20.701Z,11.95
2022-12-01T11:36:57.419Z,6.40
2022-12-01T11:39:33.536Z,7.88
2022-12-01T11:42:20.419Z,7.18
2022-12-01T11:44:56.662Z,13.25
2022-12-01T11:47:31.186Z,12.63
2022-12-01T11:50:25.808Z,8.63
2022-12-01T11:53:00.481Z,10.02
2022-12-01T11:55:34.927Z,11.13
2022-12-01T11:58:13.294Z,7.10
2022-12-01T12:00:51.560Z,7.45
2022-12-01T12:03:31.796Z,11.30
2022-12-01T12:09:32.509Z,9.55
2022-12-01T12:12:19.130Z,8.93
2022-12-01T12:15:06.826Z,8.98
2022-12-01T12:17:56.128Z,13.30
2022-12-01T12:20:41.092Z,11.45
2022-12-01T12:23:32.147Z,12.40
2022-12-01T12:26:13.957Z,26.67
2022-12-01T12:29:14.066Z,37.30
2022-12-01T12:32:00.771Z,38.03
2022-12-01T12:34:44.964Z,40.05
2022-12-01T12:37:26.452Z,32.10
2022-12-01T12:40:21.966Z,30.48
2022-12-01T12:43:21.268Z,31.50
2022-12-01T12:46:05.130Z,24.65
2022-12-01T12:52:07.802Z,24.85
2022-12-01T12:54:48.399Z,23.98
2022-12-01T12:57:30.844Z,17.13
2022-12-01T13:00:08.582Z,18.25
2022-12-01T13:02:44.743Z,16.13
2022-12-01T13:05:24.633Z,19.15
2022-12-01T13:08:03.414Z,18.50
2022-12-01T13:10:42.114Z,22.63
2022-12-01T13:13:25.745Z,18.40
2022-12-01T13:16:02.708Z,21.67
2022-12-01T13:18:42.675Z,21.52
2022-12-01T13:21:21.335Z,15.02
2022-12-01T13:23:55.456Z,18.35
2022-12-01T13:26:29.689Z,23.55
2022-12-01T13:29:07.609Z,21.60
2022-12-01T13:31:47.860Z,15.57
2022-12-01T13:34:26.002Z,18.70
2022-12-01T13:37:01.419Z,15.10
2022-12-01T13:39:37.413Z,23.88
2022-12-01T13:42:22.859Z,16.70
2022-12-01T13:44:59.872Z,13.95
2022-12-01T13:47:52.896Z,17.42
2022-12-01T13:50:56.480Z,20.83
2022-12-01T13:53:34.296Z,17.13
2022-12-01T13:56:39.360Z,13.45
2022-12-01T13:59:41.081Z,26.77
2022-12-01T14:02:21.414Z,20.17
2022-12-01T14:04:55.642Z,27.65
2022-12-01T14:07:38.319Z,22.73
2022-12-01T14:10:40.862Z,17.08
2022-12-01T14:13:21.451Z,15.70
2022-12-01T14:15:58.737Z,16.48
2022-12-01T14:18:38.463Z,13.73
2022-12-01T14:21:14.783Z,15.93
2022-12-01T14:24:02.517Z,12.25
2022-12-01T14:26:45.819Z,13.07
2022-12-01T14:29:28.321Z,11.60
2022-12-01T14:32:23.639Z,16.52
2022-12-01T14:35:13.870Z,13.23
2022-12-01T14:37:50.998Z,17.25
2022-12-01T14:40:30.474Z,11.93
2022-12-01T14:43:25.140Z,22.75
2022-12-01T14:46:10.420Z,25.15
2022-12-01T14:48:47.137Z,21.80
2022-12-01T14:51:28.274Z,17.05
2022-12-01T15:00:07.438Z,12.10
2022-12-01T15:02:42.610Z,14.10
2022-12-01T15:05:18.474Z,13.05
2022-12-01T15:08:06.717Z,14.82
2022-12-01T15:10:53.414Z,11.13
2022-12-01T15:13:30.973Z,12.00
2022-12-01T15:16:14.834Z,13.43
2022-12-01T15:18:49.118Z,17.05
2022-12-01T15:21:26.873Z,12.52
2022-12-01T15:24:02.599Z,15.38
2022-12-01T15:26:39.394Z,13.73
2022-12-01T15:29:20.408Z,11.00
2022-12-01T15:31:57.634Z,11.65
2022-12-01T15:34:34.391Z,11.73
2022-12-01T15:37:12.953Z,11.75
2022-12-01T15:39:50.205Z,17.75
2022-12-01T15:42:27.544Z,11.40
2022-12-01T15:45:03.577Z,12.77
2022-12-01T15:47:48.161Z,13.55
2022-12-01T15:50:31.377Z,22.08
2022-12-01T15:53:07.906Z,12.60
2022-12-01T15:55:41.898Z,15.85
2022-12-01T15:58:22.798Z,18.48
2022-12-01T16:01:01.899Z,73.78
2022-12-01T16:03:58.629Z,91.25
2022-12-01T16:06:34.472Z,88.55
2022-12-01T16:09:21.639Z,58.95
2022-12-01T16:12:23.427Z,70.28
2022-12-01T16:15:08.587Z,59.75
2022-12-01T16:17:44.362Z,63.00
2022-12-01T16:20:25.413Z,59.38
2022-12-01T16:23:01.379Z,55.30
2022-12-01T16:25:38.171Z,56.80
2022-12-01T16:28:22.312Z,49.63
2022-12-01T16:30:56.792Z,46.42
2022-12-01T16:33:31.726Z,44.47
2022-12-01T16:36:07.764Z,39.20
2022-12-01T16:38:41.984Z,43.55
2022-12-01T16:41:21.800Z,39.78
2022-12-01T16:44:20.653Z,39.70
2022-12-01T16:49:24.434Z,40.67
2022-12-01T16:52:11.171Z,38.28
2022-12-01T16:54:53.925Z,35.08
2022-12-01T16:57:27.884Z,32.28
2022-12-01T17:00:01.784Z,29.67
2022-12-01T17:02:35.836Z,28.80
2022-12-01T17:05:11.818Z,32.63
2022-12-01T17:07:47.099Z,32.83
2022-12-01T17:10:21.308Z,29.02
2022-12-01T17:12:56.798Z,30.88
2022-12-01T17:18:04.286Z,26.53
2022-12-01T17:20:38.162Z,26.02
2022-12-01T17:23:13.730Z,27.58
2022-12-01T17:25:47.500Z,31.67
2022-12-01T17:30:55.030Z,25.07
2022-12-01T17:36:04.522Z,24.08
2022-12-01T17:38:41.700Z,20.77
2022-12-01T17:41:17.520Z,17.48
2022-12-01T17:43:51.350Z,17.75
2022-12-01T17:48:58.776Z,14.77
2022-12-01T17:54:08.133Z,21.77
2022-12-01T17:56:42.948Z,15.73
2022-12-01T17:59:17.004Z,13.30
2022-12-01T18:01:50.847Z,19.00
2022-12-01T18:06:58.569Z,16.70
2022-12-01T18:09:33.954Z,13.48
2022-12-01T18:12:08.041Z,14.93
2022-12-01T18:14:41.887Z,16.15
2022-12-01T18:17:15.814Z,18.52
2022-12-01T18:19:49.645Z,14.35
2022-12-01T18:24:59.091Z,14.38
2022-12-01T18:27:32.908Z,12.98
2022-12-01T18:32:41.015Z,19.67
2022-12-01T18:35:14.799Z,11.13
2022-12-01T18:37:48.791Z,12.43
2022-12-01T18:42:58.025Z,11.27
2022-12-01T18:48:06.688Z,15.55
2022-12-01T18:50:40.466Z,23.08
2022-12-01T18:55:49.237Z,13.40
2022-12-01T18:58:23.062Z,9.82
2022-12-01T19:03:31.234Z,10.60
2022-12-01T19:06:07.804Z,11.02
2022-12-01T19:08:42.007Z,10.32
2022-12-01T19:11:17.431Z,10.85
2022-12-01T19:13:51.355Z,8.77
2022-12-01T19:16:25.496Z,16.70
2022-12-01T19:19:00.113Z,15.77
2022-12-01T19:21:33.984Z,17.10
2022-12-01T19:26:43.160Z,12.30
2022-12-01T19:29:17.530Z,9.20
2022-12-01T19:34:25.996Z,15.13
2022-12-01T19:37:00.144Z,10.15
2022-12-01T19:39:34.286Z,12.57
2022-12-01T19:44:43.490Z,8.88
2022-12-01T19:49:56.290Z,7.43
2022-12-01T19:55:05.919Z,13.05
2022-12-01T19:57:43.090Z,8.30
2022-12-01T20:00:17.561Z,7.63
2022-12-01T20:02:51.498Z,9.65
2022-12-01T20:05:25.467Z,10.65
2022-12-01T20:08:00.001Z,11.13
2022-12-01T20:10:33.796Z,11.48
2022-12-01T20:15:42.471Z,11.88
2022-12-01T20:20:49.984Z,8.73
2022-12-01T20:26:00.791Z,10.88
2022-12-01T20:28:37.290Z,9.77
2022-12-01T20:31:14.367Z,8.18
2022-12-01T20:33:48.771Z,8.38
2022-12-01T20:36:23.536Z,7.00
2022-12-01T20:38:57.570Z,8.90
2022-12-01T20:41:31.354Z,7.78
2022-12-01T20:46:42.250Z,6.20
2022-12-01T20:49:17.222Z,7.03
2022-12-01T20:51:51.610Z,7.57
2022-12-01T20:54:28.421Z,5.95
2022-12-01T20:57:03.705Z,9.05
2022-12-01T20:59:39.228Z,14.52
2022-12-01T21:02:13.191Z,10.10
2022-12-01T21:04:47.070Z,10.15
2022-12-01T21:09:55.023Z,9.18
2022-12-01T21:12:48.301Z,12.32
2022-12-01T21:15:28.351Z,12.45
2022-12-01T21:18:05.924Z,8.15
2022-12-01T21:20:44.171Z,6.82
2022-12-01T21:23:18.748Z,10.93
2022-12-01T21:25:52.604Z,9.82
2022-12-01T21:31:14.205Z,8.38
2022-12-01T21:33:48.211Z,13.35
2022-12-01T21:36:24.276Z,7.78
2022-12-01T21:39:10.629Z,9.82
2022-12-01T21:41:44.522Z,9.70
2022-12-01T21:49:36.786Z,7.57
2022-12-01T21:52:18.064Z,6.28
2022-12-01T21:54:52.666Z,11.27
2022-12-01T21:57:42.361Z,4.95
2022-12-01T22:00:28.017Z,9.15
2022-12-01T22:03:26.032Z,8.52
2022-12-01T22:08:59.945Z,7.25
2022-12-01T22:11:34.019Z,5.82
2022-12-01T22:14:15.851Z,7.88
2022-12-01T22:16:55.778Z,5.13
2022-12-01T22:19:33.014Z,5.80
2022-12-01T22:22:24.053Z,9.85
2022-12-01T22:25:01.443Z,9.65
2022-12-01T22:27:38.685Z,9.02
2022-12-01T22:30:19.602Z,5.28
2022-12-01T22:32:57.198Z,6.15
2022-12-01T22:35:35.632Z,6.80
2022-12-01T22:38:32.251Z,4.60
2022-12-01T22:41:08.268Z,8.18
2022-12-01T22:43:54.784Z,6.22
2022-12-01T22:46:32.330Z,4.65
2022-12-01T22:49:19.644Z,6.40
2022-12-01T22:51:59.383Z,8.52
2022-12-01T22:54:40.778Z,5.30
2022-12-01T22:57:29.214Z,6.90
2022-12-01T23:00:15.450Z,4.97
2022-12-01T23:02:50.408Z,12.35
2022-12-01T23:05:26.269Z,8.50
2022-12-01T23:08:02.905Z,8.27
2022-12-01T23:10:36.887Z,5.75
2022-12-01T23:13:15.415Z,7.05
2022-12-01T23:15:51.904Z,6.15
2022-12-01T23:18:32.249Z,4.85
2022-12-01T23:21:06.729Z,8.20
2022-12-01T23:23:42.522Z,5.43
2022-12-01T23:26:16.949Z,5.35
2022-12-01T23:28:51.429Z,6.28
2022-12-01T23:31:26.414Z,4.57
2022-12-01T23:34:00.923Z,6.85
2022-12-01T23:36:35.349Z,4.60
2022-12-01T23:39:15.842Z,5.05
2022-12-01T23:41:52.902Z,4.10
2022-12-01T23:44:34.764Z,6.57
2022-12-01T23:47:17.154Z,3.70
2022-12-01T23:50:00.181Z,3.90
2022-12-01T23:52:37.266Z,7.22
2022-12-01T23:55:21.743Z,4.18
2022-12-01T23:57:57.166Z,4.35
